createdAt,value
2022-11-20T00:01:08.340Z,16.20
2022-11-20T00:03:36.803Z,16.30
2022-11-20T00:06:06.080Z,16.20
2022-11-20T00:08:34.546Z,16.20
2022-11-20T00:11:05.148Z,16.10
2022-11-20T00:13:33.599Z,16.10
2022-11-20T00:16:04.662Z,16.10
2022-11-20T00:18:33.000Z,16.00
2022-11-20T00:21:04.570Z,16.00
2022-11-20T00:23:33.342Z,16.00
2022-11-20T00:26:03.539Z,16.10
2022-11-20T00:28:32.191Z,16.10
2022-11-20T00:31:05.812Z,16.20
2022-11-20T00:33:34.551Z,16.20
2022-11-20T00:36:03.393Z,16.20
2022-11-20T00:38:32.028Z,16.30
2022-11-20T00:41:01.186Z,16.10
2022-11-20T00:43:29.721Z,16.10
2022-11-20T00:45:58.692Z,16.00
2022-11-20T00:48:28.856Z,15.90
2022-11-20T00:50:57.605Z,15.50
2022-11-20T00:53:26.261Z,15.40
2022-11-20T00:55:55.121Z,15.40
2022-11-20T00:58:23.631Z,15.40
2022-11-20T01:00:52.024Z,15.50
2022-11-20T01:03:26.623Z,15.40
2022-11-20T01:05:56.766Z,15.40
2022-11-20T01:08:25.156Z,15.30
2022-11-20T01:10:53.552Z,15.30
2022-11-20T01:13:40.229Z,15.50
2022-11-20T01:16:10.126Z,15.40
2022-11-20T01:18:38.995Z,15.40
2022-11-20T01:21:10.205Z,15.40
2022-11-20T01:23:39.384Z,15.40
2022-11-20T01:26:09.109Z,15.50
2022-11-20T01:28:37.523Z,15.40
2022-11-20T01:31:13.067Z,15.30
2022-11-20T01:33:41.612Z,15.20
2022-11-20T01:36:11.947Z,15.10
2022-11-20T01:38:40.415Z,15.00
2022-11-20T01:41:09.257Z,14.90
2022-11-20T01:43:36.729Z,14.70
2022-11-20T01:46:06.933Z,14.60
2022-11-20T01:48:38.684Z,14.60
2022-11-20T01:51:08.826Z,14.80
2022-11-20T01:53:38.974Z,14.60
2022-11-20T01:56:08.831Z,14.60
2022-11-20T01:58:39.235Z,14.50
2022-11-20T02:01:07.766Z,14.60
2022-11-20T02:03:36.299Z,14.70
2022-11-20T02:06:07.223Z,14.60
2022-11-20T02:08:36.186Z,14.60
2022-11-20T02:11:06.027Z,14.70
2022-11-20T02:13:47.113Z,14.70
2022-11-20T02:16:17.312Z,14.70
2022-11-20T02:18:46.274Z,14.90
2022-11-20T02:21:23.130Z,14.80
2022-11-20T02:24:12.380Z,14.90
2022-11-20T02:26:44.828Z,14.90
2022-11-20T02:29:13.216Z,14.90
2022-11-20T02:31:44.423Z,14.90
2022-11-20T02:34:13.072Z,15.10
2022-11-20T02:36:43.050Z,15.10
2022-11-20T02:39:13.608Z,15.10
2022-11-20T02:41:43.383Z,15.10
2022-11-20T02:44:12.033Z,15.00
2022-11-20T02:46:40.580Z,15.00
2022-11-20T02:49:08.971Z,14.90
2022-11-20T02:51:37.400Z,14.90
2022-11-20T02:54:06.752Z,14.80
2022-11-20T02:56:35.312Z,14.80
2022-11-20T02:59:05.589Z,14.70
2022-11-20T03:01:34.032Z,14.70
2022-11-20T03:04:02.492Z,14.60
2022-11-20T03:06:30.940Z,14.60
2022-11-20T03:08:59.374Z,14.60
2022-11-20T03:11:27.814Z,14.60
2022-11-20T03:13:56.216Z,14.60
2022-11-20T03:16:26.095Z,14.60
2022-11-20T03:18:54.569Z,14.60
2022-11-20T03:21:23.053Z,14.50
2022-11-20T03:23:51.457Z,14.50
2022-11-20T03:26:20.937Z,14.60
2022-11-20T03:28:51.600Z,14.60
2022-11-20T03:31:21.323Z,14.60
2022-11-20T03:33:51.421Z,14.50
2022-11-20T03:36:21.112Z,14.40
2022-11-20T03:38:49.984Z,14.40
2022-11-20T03:41:20.697Z,14.30
2022-11-20T03:43:49.858Z,14.30
2022-11-20T03:46:18.316Z,14.30
2022-11-20T03:48:51.313Z,14.30
2022-11-20T03:51:22.479Z,14.30
2022-11-20T03:53:51.618Z,14.30
2022-11-20T03:56:22.268Z,14.30
2022-11-20T03:58:50.709Z,14.30
2022-11-20T04:01:19.925Z,14.40
2022-11-20T04:03:51.351Z,14.40
2022-11-20T04:06:24.465Z,14.40
2022-11-20T04:08:54.155Z,14.40
2022-11-20T04:11:23.186Z,14.40
2022-11-20T04:13:52.536Z,14.40
2022-11-20T04:16:21.398Z,14.40
2022-11-20T04:18:53.295Z,14.50
2022-11-20T04:21:23.512Z,14.40
2022-11-20T04:23:51.898Z,14.40
2022-11-20T04:26:20.776Z,14.50
2022-11-20T04:28:49.253Z,14.50
2022-11-20T04:31:18.717Z,14.50
2022-11-20T04:33:47.123Z,14.50
2022-11-20T04:36:16.216Z,14.50
2022-11-20T04:38:46.436Z,14.40
2022-11-20T04:41:17.523Z,14.40
2022-11-20T04:43:48.377Z,14.40
2022-11-20T04:46:17.186Z,14.40
2022-11-20T04:48:45.573Z,14.30
2022-11-20T04:51:14.118Z,14.20
2022-11-20T04:53:42.516Z,14.20
2022-11-20T04:56:13.097Z,14.10
2022-11-20T04:58:41.602Z,14.20
2022-11-20T05:01:12.160Z,14.20
2022-11-20T05:03:42.469Z,14.20
2022-11-20T05:06:12.003Z,14.10
2022-11-20T05:08:40.456Z,14.20
2022-11-20T05:11:10.318Z,14.20
2022-11-20T05:13:40.402Z,14.20
2022-11-20T05:16:10.332Z,14.20
2022-11-20T05:18:39.245Z,14.20
2022-11-20T05:21:08.433Z,14.20
2022-11-20T05:23:36.907Z,14.20
2022-11-20T05:26:05.923Z,14.20
2022-11-20T05:28:34.839Z,14.20
2022-11-20T05:31:08.114Z,14.20
2022-11-20T05:33:37.114Z,14.20
2022-11-20T05:36:05.993Z,14.20
2022-11-20T05:38:34.621Z,14.20
2022-11-20T05:41:06.659Z,14.30
2022-11-20T05:43:35.985Z,14.30
2022-11-20T05:46:04.847Z,14.30
2022-11-20T05:48:34.986Z,14.30
2022-11-20T05:51:04.383Z,14.30
2022-11-20T05:53:33.945Z,14.30
2022-11-20T05:56:02.877Z,14.20
2022-11-20T05:58:31.709Z,14.20
2022-11-20T06:01:05.508Z,14.40
2022-11-20T06:03:38.480Z,14.30
2022-11-20T06:06:07.476Z,14.30
2022-11-20T06:08:35.864Z,14.30
2022-11-20T06:11:09.353Z,14.30
2022-11-20T06:13:41.802Z,14.30
2022-11-20T06:16:11.286Z,14.20
2022-11-20T06:18:41.490Z,14.30
2022-11-20T06:21:10.789Z,14.20
2022-11-20T06:23:39.450Z,14.20
2022-11-20T06:26:08.668Z,14.20
2022-11-20T06:28:37.220Z,14.10
2022-11-20T06:31:06.293Z,14.10
2022-11-20T06:33:34.870Z,14.30
2022-11-20T06:36:10.322Z,14.30
2022-11-20T06:38:39.317Z,14.30
2022-11-20T06:41:07.865Z,14.20
2022-11-20T06:43:36.240Z,14.30
2022-11-20T06:46:04.708Z,14.40
2022-11-20T06:48:34.807Z,14.40
2022-11-20T06:51:06.679Z,14.30
2022-11-20T06:53:35.176Z,14.30
2022-11-20T06:56:03.640Z,14.30
2022-11-20T06:58:33.535Z,14.30
2022-11-20T07:01:02.118Z,14.30
2022-11-20T07:03:30.492Z,14.30
2022-11-20T07:05:59.120Z,14.20
2022-11-20T07:08:29.080Z,14.20
2022-11-20T07:10:59.684Z,14.20
2022-11-20T07:13:28.399Z,14.20
2022-11-20T07:15:56.819Z,14.30
2022-11-20T07:18:25.289Z,14.30
2022-11-20T07:20:53.743Z,14.40
2022-11-20T07:23:22.179Z,14.40
2022-11-20T07:25:52.024Z,14.40
2022-11-20T07:28:20.393Z,14.40
2022-11-20T07:30:51.679Z,14.40
2022-11-20T07:33:22.250Z,14.40
2022-11-20T07:35:50.646Z,14.40
2022-11-20T07:38:19.025Z,14.40
2022-11-20T07:40:47.484Z,14.50
2022-11-20T07:43:17.272Z,14.50
2022-11-20T07:45:45.717Z,14.50
2022-11-20T07:48:14.186Z,14.60
2022-11-20T07:50:42.589Z,14.70
2022-11-20T07:53:10.962Z,14.60
2022-11-20T07:55:39.377Z,14.60
2022-11-20T07:58:07.966Z,14.50
2022-11-20T08:00:37.808Z,14.60
2022-11-20T08:03:06.468Z,14.50
2022-11-20T08:05:35.047Z,14.40
2022-11-20T08:08:03.384Z,14.50
2022-11-20T08:10:31.756Z,14.40
2022-11-20T08:13:17.622Z,14.40
2022-11-20T08:15:50.676Z,14.40
2022-11-20T08:18:34.678Z,14.50
2022-11-20T08:21:04.284Z,14.40
2022-11-20T08:23:35.076Z,14.50
2022-11-20T08:26:03.511Z,14.40
2022-11-20T08:28:31.918Z,14.40
2022-11-20T08:31:02.673Z,14.40
2022-11-20T08:33:33.580Z,14.40
2022-11-20T08:36:02.489Z,14.40
2022-11-20T08:38:30.982Z,14.40
2022-11-20T08:41:16.970Z,14.40
2022-11-20T08:43:45.377Z,14.50
2022-11-20T08:46:15.205Z,14.50
2022-11-20T08:48:43.828Z,14.50
2022-11-20T08:51:12.563Z,14.50
2022-11-20T08:53:40.997Z,14.50
2022-11-20T08:56:10.544Z,14.50
2022-11-20T08:59:01.969Z,14.50
2022-11-20T09:01:29.285Z,14.50
2022-11-20T09:03:58.511Z,14.60
2022-11-20T09:06:26.888Z,14.60
2022-11-20T09:08:55.496Z,14.60
2022-11-20T09:11:24.099Z,14.60
2022-11-20T09:13:52.562Z,14.60
2022-11-20T09:16:21.140Z,14.60
2022-11-20T09:19:07.238Z,14.70
2022-11-20T09:21:40.104Z,14.60
2022-11-20T09:24:08.826Z,14.70
2022-11-20T09:26:37.481Z,14.70
2022-11-20T09:29:06.195Z,14.80
2022-11-20T09:31:34.591Z,14.90
2022-11-20T09:34:04.640Z,14.90
2022-11-20T09:36:32.994Z,14.90
2022-11-20T09:39:01.357Z,14.90
2022-11-20T09:41:38.514Z,14.80
2022-11-20T09:44:12.908Z,14.80
2022-11-20T09:46:44.365Z,14.80
2022-11-20T09:49:25.177Z,14.80
2022-11-20T09:51:59.612Z,14.90
2022-11-20T09:54:30.024Z,14.80
2022-11-20T09:57:00.884Z,14.70
2022-11-20T09:59:35.759Z,14.70
2022-11-20T10:02:05.039Z,14.70
2022-11-20T10:04:38.240Z,14.80
2022-11-20T10:10:02.634Z,14.80
2022-11-20T10:12:40.547Z,14.80
2022-11-20T10:15:14.929Z,14.70
2022-11-20T10:17:56.270Z,14.70
2022-11-20T10:20:29.795Z,14.70
2022-11-20T10:23:10.612Z,14.70
2022-11-20T10:25:41.767Z,14.90
2022-11-20T10:28:18.866Z,14.80
2022-11-20T10:30:50.619Z,14.70
2022-11-20T10:33:20.607Z,14.80
2022-11-20T10:35:54.807Z,14.80
2022-11-20T10:38:24.079Z,14.80
2022-11-20T10:40:54.607Z,14.80
2022-11-20T10:43:25.985Z,14.70
2022-11-20T10:45:58.541Z,14.80
2022-11-20T10:48:27.888Z,14.70
2022-11-20T10:51:01.846Z,14.70
2022-11-20T10:53:38.615Z,14.70
2022-11-20T10:56:08.140Z,14.80
2022-11-20T10:58:43.620Z,14.70
2022-11-20T11:01:16.179Z,14.80
2022-11-20T11:03:45.473Z,14.80
2022-11-20T11:06:19.976Z,14.70
2022-11-20T11:08:49.508Z,14.60
2022-11-20T11:11:22.585Z,14.50
2022-11-20T11:13:51.359Z,14.50
2022-11-20T11:16:23.268Z,14.60
2022-11-20T11:18:51.968Z,14.50
2022-11-20T11:21:26.094Z,14.40
2022-11-20T11:24:19.653Z,14.50
2022-11-20T11:26:58.521Z,14.40
2022-11-20T11:29:30.495Z,14.40
2022-11-20T11:32:06.366Z,14.50
2022-11-20T11:34:34.823Z,14.40
2022-11-20T11:37:05.449Z,14.50
2022-11-20T11:39:34.791Z,14.50
2022-11-20T11:42:03.516Z,14.50
2022-11-20T11:44:50.599Z,14.40
2022-11-20T11:47:23.691Z,14.50
2022-11-20T11:50:02.710Z,14.60
2022-11-20T11:52:33.383Z,14.50
2022-11-20T11:55:10.063Z,14.60
2022-11-20T11:57:49.558Z,14.50
2022-11-20T12:00:18.998Z,14.50
2022-11-20T12:02:52.531Z,14.40
2022-11-20T12:05:22.045Z,14.50
2022-11-20T12:07:53.533Z,14.50
2022-11-20T12:10:23.746Z,14.50
2022-11-20T12:12:54.803Z,14.40
2022-11-20T12:15:30.977Z,14.60
2022-11-20T12:17:59.689Z,14.80
2022-11-20T12:20:30.895Z,14.80
2022-11-20T12:23:07.114Z,14.70
2022-11-20T12:25:37.779Z,14.50
2022-11-20T12:28:18.011Z,14.30
2022-11-20T12:30:51.688Z,14.20
2022-11-20T12:33:32.840Z,14.10
2022-11-20T12:36:06.637Z,14.20
2022-11-20T12:38:52.115Z,14.10
2022-11-20T12:41:40.755Z,14.00
2022-11-20T12:44:33.083Z,13.90
2022-11-20T12:47:10.913Z,13.90
2022-11-20T12:49:43.529Z,13.90
2022-11-20T12:52:19.209Z,13.80
2022-11-20T12:54:56.309Z,13.80
2022-11-20T12:57:27.484Z,13.70
2022-11-20T13:00:04.451Z,13.70
2022-11-20T13:02:39.635Z,13.60
2022-11-20T13:05:14.526Z,13.70
2022-11-20T13:07:44.122Z,13.60
2022-11-20T13:10:18.747Z,13.70
2022-11-20T13:12:48.160Z,13.70
2022-11-20T13:15:20.400Z,13.60
2022-11-20T13:17:51.899Z,13.60
2022-11-20T13:20:21.119Z,13.60
2022-11-20T13:22:51.997Z,13.60
2022-11-20T13:25:28.799Z,13.70
2022-11-20T13:27:57.900Z,13.80
2022-11-20T13:30:27.013Z,13.80
2022-11-20T13:32:55.923Z,13.80
2022-11-20T13:35:28.647Z,13.70
2022-11-20T13:38:09.853Z,13.70
2022-11-20T13:40:40.750Z,13.60
2022-11-20T13:43:21.783Z,13.50
2022-11-20T13:45:57.216Z,13.50
2022-11-20T13:48:26.411Z,13.40
2022-11-20T13:51:03.648Z,13.40
2022-11-20T13:53:37.891Z,13.40
2022-11-20T13:56:13.067Z,13.40
2022-11-20T13:58:52.236Z,13.40
2022-11-20T14:01:23.134Z,13.50
2022-11-20T14:04:05.607Z,13.50
2022-11-20T14:06:36.416Z,13.50
2022-11-20T14:09:04.963Z,13.40
2022-11-20T14:11:34.708Z,13.50
2022-11-20T14:14:04.023Z,13.50
2022-11-20T14:16:33.238Z,13.50
2022-11-20T14:19:24.337Z,13.50
2022-11-20T14:21:54.170Z,13.50
2022-11-20T14:24:23.778Z,13.60
2022-11-20T14:26:54.294Z,13.50
2022-11-20T14:29:24.207Z,13.60
2022-11-20T14:31:54.685Z,13.50
2022-11-20T14:34:24.585Z,13.50
2022-11-20T14:36:54.788Z,13.40
2022-11-20T14:39:23.429Z,13.40
2022-11-20T14:41:54.272Z,13.50
2022-11-20T14:44:25.837Z,13.40
2022-11-20T14:46:54.920Z,13.50
2022-11-20T14:49:23.289Z,13.40
2022-11-20T14:52:02.021Z,13.40
2022-11-20T14:54:31.742Z,13.40
2022-11-20T14:57:02.763Z,13.40
2022-11-20T14:59:31.738Z,13.40
2022-11-20T15:02:01.422Z,13.40
2022-11-20T15:04:30.132Z,13.40
2022-11-20T15:06:59.581Z,13.40
2022-11-20T15:09:28.115Z,13.40
2022-11-20T15:11:57.957Z,13.40
2022-11-20T15:14:28.772Z,13.30
2022-11-20T15:16:57.356Z,13.30
2022-11-20T15:19:27.254Z,13.40
2022-11-20T15:21:55.710Z,13.30
2022-11-20T15:24:24.365Z,13.20
2022-11-20T15:26:52.969Z,13.30
2022-11-20T15:29:22.146Z,13.40
2022-11-20T15:31:53.690Z,13.30
2022-11-20T15:34:22.318Z,13.30
2022-11-20T15:36:50.874Z,13.40
2022-11-20T15:39:19.257Z,13.40
2022-11-20T15:41:47.693Z,13.40
2022-11-20T15:44:16.049Z,13.30
2022-11-20T15:46:46.167Z,13.30
2022-11-20T15:49:16.619Z,13.30
2022-11-20T15:51:47.347Z,13.30
2022-11-20T15:54:16.802Z,13.30
2022-11-20T15:56:45.291Z,13.40
2022-11-20T15:59:15.555Z,13.30
2022-11-20T16:01:44.546Z,13.40
2022-11-20T16:04:13.413Z,13.40
2022-11-20T16:06:43.301Z,13.40
2022-11-20T16:09:11.695Z,13.40
2022-11-20T16:11:40.295Z,13.50
2022-11-20T16:14:26.608Z,13.50
2022-11-20T16:16:55.125Z,13.50
2022-11-20T16:19:23.492Z,13.40
2022-11-20T16:21:54.363Z,13.50
2022-11-20T16:24:24.874Z,13.50
2022-11-20T16:26:55.084Z,13.40
2022-11-20T16:29:23.560Z,13.50
2022-11-20T16:31:51.955Z,13.50
2022-11-20T16:34:22.582Z,13.40
2022-11-20T16:36:51.008Z,13.50
2022-11-20T16:39:23.956Z,13.50
2022-11-20T16:41:52.661Z,13.40
2022-11-20T16:44:21.608Z,13.50
2022-11-20T16:46:50.395Z,13.50
2022-11-20T16:49:18.781Z,13.40
2022-11-20T16:51:47.282Z,13.40
2022-11-20T16:54:20.508Z,13.50
2022-11-20T16:56:52.029Z,13.80
2022-11-20T16:59:20.463Z,13.90
2022-11-20T17:01:48.915Z,13.70
2022-11-20T17:04:17.361Z,13.90
2022-11-20T17:06:46.011Z,14.00
2022-11-20T17:09:14.617Z,14.00
2022-11-20T17:11:43.037Z,14.00
2022-11-20T17:14:13.307Z,14.00
2022-11-20T17:16:41.660Z,14.00
2022-11-20T17:19:10.192Z,13.80
2022-11-20T17:21:39.392Z,13.60
2022-11-20T17:24:09.178Z,13.50
2022-11-20T17:26:38.310Z,13.30
2022-11-20T17:29:07.697Z,13.40
2022-11-20T17:31:38.466Z,13.40
2022-11-20T17:34:07.003Z,13.40
2022-11-20T17:36:36.949Z,13.40
2022-11-20T17:39:08.034Z,13.50
2022-11-20T17:41:36.444Z,13.60
2022-11-20T17:44:04.801Z,13.70
2022-11-20T17:46:34.324Z,13.80
2022-11-20T17:49:05.011Z,13.90
2022-11-20T17:51:35.070Z,13.90
2022-11-20T17:54:07.434Z,13.90
2022-11-20T17:56:53.595Z,13.90
2022-11-20T17:59:22.154Z,14.00
2022-11-20T18:01:50.619Z,13.80
2022-11-20T18:04:20.443Z,13.70
2022-11-20T18:06:48.876Z,13.70
2022-11-20T18:09:17.616Z,13.80
2022-11-20T18:11:46.031Z,13.90
2022-11-20T18:14:32.243Z,13.90
2022-11-20T18:17:03.750Z,13.90
2022-11-20T18:19:36.493Z,13.90
2022-11-20T18:22:09.050Z,13.90
2022-11-20T18:24:38.476Z,13.90
2022-11-20T18:27:07.896Z,13.90
2022-11-20T18:29:36.355Z,13.80
2022-11-20T18:32:04.969Z,13.70
2022-11-20T18:34:34.747Z,13.70
2022-11-20T18:37:03.242Z,13.60
2022-11-20T18:39:31.649Z,13.50
2022-11-20T18:42:17.778Z,13.40
2022-11-20T18:44:52.786Z,13.40
2022-11-20T18:47:22.505Z,13.30
2022-11-20T18:49:53.574Z,13.20
2022-11-20T18:52:23.052Z,13.20
2022-11-20T18:54:51.924Z,13.20
2022-11-20T18:57:21.521Z,13.30
2022-11-20T18:59:49.995Z,13.30
2022-11-20T19:02:19.381Z,13.40
2022-11-20T19:04:47.955Z,13.40
2022-11-20T19:07:18.313Z,13.40
2022-11-20T19:09:49.800Z,13.40
2022-11-20T19:12:18.233Z,13.50
2022-11-20T19:14:46.932Z,13.50
2022-11-20T19:17:18.787Z,13.50
2022-11-20T19:19:47.593Z,13.50
2022-11-20T19:22:17.411Z,13.50
2022-11-20T19:24:45.954Z,13.40
2022-11-20T19:27:14.627Z,13.30
2022-11-20T19:29:43.061Z,13.40
2022-11-20T19:32:11.524Z,13.30
2022-11-20T19:34:40.051Z,13.30
2022-11-20T19:37:08.487Z,13.30
2022-11-20T19:39:38.800Z,13.30
2022-11-20T19:42:07.227Z,13.20
2022-11-20T19:44:35.961Z,13.10
2022-11-20T19:47:08.995Z,13.10
2022-11-20T19:49:41.876Z,13.00
2022-11-20T19:52:10.375Z,12.80
2022-11-20T19:54:40.149Z,12.80
2022-11-20T19:57:08.581Z,12.70
2022-11-20T19:59:37.082Z,12.70
2022-11-20T20:02:06.474Z,12.70
2022-11-20T20:04:34.873Z,12.70
2022-11-20T20:07:06.235Z,12.70
2022-11-20T20:09:34.980Z,12.60
2022-11-20T20:12:07.951Z,12.80
2022-11-20T20:14:36.459Z,12.70
2022-11-20T20:17:04.803Z,12.70
2022-11-20T20:19:33.161Z,12.80
2022-11-20T20:22:01.940Z,12.80
2022-11-20T20:24:30.487Z,12.70
2022-11-20T20:26:58.874Z,12.80
2022-11-20T20:29:31.428Z,12.80
2022-11-20T20:31:59.826Z,12.80
2022-11-20T20:34:31.460Z,12.80
2022-11-20T20:36:59.839Z,12.90
2022-11-20T20:39:29.231Z,12.90
2022-11-20T20:41:57.765Z,12.90
2022-11-20T20:44:43.327Z,12.90
2022-11-20T20:47:13.185Z,12.90
2022-11-20T20:49:43.239Z,13.00
2022-11-20T20:52:11.660Z,13.00
2022-11-20T20:54:42.053Z,13.10
2022-11-20T20:57:10.391Z,13.10
2022-11-20T20:59:38.968Z,13.00
2022-11-20T21:02:07.454Z,13.00
2022-11-20T21:04:37.293Z,12.90
2022-11-20T21:07:05.760Z,12.70
2022-11-20T21:09:34.177Z,12.70
2022-11-20T21:12:02.636Z,12.50
2022-11-20T21:14:31.084Z,12.60
2022-11-20T21:16:59.492Z,12.60
2022-11-20T21:19:27.930Z,12.60
2022-11-20T21:21:59.378Z,12.60
2022-11-20T21:24:28.252Z,12.70
2022-11-20T21:26:56.913Z,12.70
2022-11-20T21:29:26.026Z,12.70
2022-11-20T21:31:54.786Z,12.70
2022-11-20T21:34:23.923Z,12.70
2022-11-20T21:36:52.771Z,12.60
2022-11-20T21:39:23.012Z,12.60
2022-11-20T21:41:51.444Z,12.70
2022-11-20T21:44:35.083Z,12.60
2022-11-20T21:47:03.496Z,12.70
2022-11-20T21:49:31.857Z,12.70
2022-11-20T21:52:00.242Z,12.80
2022-11-20T21:54:30.879Z,12.80
2022-11-20T21:56:59.279Z,12.80
2022-11-20T21:59:27.648Z,12.70
2022-11-20T22:01:56.188Z,12.70
2022-11-20T22:04:25.075Z,12.80
2022-11-20T22:06:53.597Z,12.70
2022-11-20T22:09:22.741Z,12.70
2022-11-20T22:11:52.489Z,12.70
2022-11-20T22:14:23.067Z,12.60
2022-11-20T22:16:52.849Z,12.60
2022-11-20T22:19:21.874Z,12.60
2022-11-20T22:21:51.185Z,12.60
2022-11-20T22:24:20.834Z,12.60
2022-11-20T22:26:49.517Z,12.60
2022-11-20T22:29:20.942Z,12.60
2022-11-20T22:31:49.417Z,12.60
2022-11-20T22:34:17.810Z,12.60
2022-11-20T22:36:46.156Z,12.60
2022-11-20T22:39:14.671Z,12.60
2022-11-20T22:41:43.076Z,12.50
2022-11-20T22:44:14.553Z,12.50
2022-11-20T22:46:44.476Z,12.50
2022-11-20T22:49:12.883Z,12.40
2022-11-20T22:51:42.341Z,12.30
2022-11-20T22:54:12.035Z,12.20
2022-11-20T22:56:40.719Z,12.30
2022-11-20T22:59:09.186Z,12.40
2022-11-20T23:01:38.053Z,12.30
2022-11-20T23:04:08.578Z,12.20
2022-11-20T23:06:37.180Z,12.20
2022-11-20T23:09:06.465Z,12.30
2022-11-20T23:11:35.471Z,12.30
2022-11-20T23:14:04.639Z,12.30
2022-11-20T23:16:33.542Z,12.40
2022-11-20T23:19:05.413Z,12.30
2022-11-20T23:21:35.838Z,12.40
2022-11-20T23:24:04.806Z,12.60
2022-11-20T23:26:34.877Z,12.70
2022-11-20T23:29:03.800Z,12.60
2022-11-20T23:31:33.016Z,12.50
2022-11-20T23:34:03.764Z,12.50
2022-11-20T23:36:32.259Z,12.60
2022-11-20T23:39:02.048Z,12.50
2022-11-20T23:41:30.508Z,12.40
2022-11-20T23:43:58.910Z,12.50
2022-11-20T23:46:27.331Z,12.50
2022-11-20T23:48:55.727Z,12.50
2022-11-20T23:51:24.113Z,12.50
2022-11-20T23:53:52.485Z,12.60
2022-11-20T23:56:22.316Z,12.60
2022-11-20T23:58:50.618Z,12.70
